Terminal Aerodrome Forecast
Issued by NWS State College, PA

Home | Current Version | Previous Version | Text Only | Print | Product List | Glossary On
Versions: 1 2 3 4 5 6 7 8 9 10 11 12 13 14 15 16 17 18 19 20 21 22 23 24 25 26 27
000
FTUS41 KCTP 062143 AAC
TAFMDT
TAF AMD
KMDT 062143Z 0622/0718 07007KT 4SM RAPL BR SCT030 OVC070
     FM062300 10005KT 3SM -RA BR OVC015
     FM071500 30009KT P6SM OVC250=

USA.gov is the U.S. government's official web portal to all federal, state and local government web resources and services.